Wetterstation Vordersexau
Wetterdaten: Woche 26.02.18 - 04.03.18 (KW9)
Datum Zeit Temp. A. Feuchte A. Luftdruck Regen Wind Richtung Taupunkt Windchill Windben
26.02.2018 00:00 -5,6 C 48 % 1017,8 hPa 0,0 l/m 7,8 km/h O-NO -14,8 C -7,3 C 4,3 km/h
26.02.2018 01:00 -5,5 C 48 % 1017,8 hPa 0,0 l/m 0,0 km/h NO -14,7 C -5,5 C 0,0 km/h
26.02.2018 02:00 -6,2 C 50 % 1017,8 hPa 0,0 l/m 0,0 km/h N-NO -14,9 C -6,2 C 0,0 km/h
26.02.2018 03:00 -7,2 C 55 % 1017,6 hPa 0,0 l/m 0,0 km/h NO -14,7 C -7,2 C 0,0 km/h
26.02.2018 04:00 -7,4 C 54 % 1017,8 hPa 0,0 l/m 0,0 km/h N-NO -15,1 C -7,4 C 0,0 km/h
26.02.2018 05:00 -8,1 C 54 % 1018,0 hPa 0,0 l/m 0,0 km/h NO -15,7 C -8,1 C 0,0 km/h
26.02.2018 06:00 -8,4 C 54 % 1018,2 hPa 0,0 l/m 0,0 km/h N-NO -16,0 C -8,4 C 0,0 km/h
26.02.2018 07:00 -8,5 C 55 % 1018,5 hPa 0,0 l/m 0,0 km/h N -15,9 C -8,5 C 0,0 km/h
26.02.2018 08:00 -5,2 C 49 % 1018,4 hPa 0,0 l/m 3,2 km/h O-NO -14,2 C -5,2 C 1,8 km/h
26.02.2018 09:00 -3,2 C 44 % 1018,1 hPa 0,0 l/m 6,5 km/h N-NO -13,7 C -3,3 C 3,6 km/h
26.02.2018 10:00 -1,7 C 39 % 1017,9 hPa 0,0 l/m 13,6 km/h N -13,8 C -8,1 C 7,6 km/h
26.02.2018 11:00 -0,5 C 36 % 1017,7 hPa 0,0 l/m 0,0 km/h O -13,7 C -0,5 C 0,0 km/h
26.02.2018 12:00 -0,4 C 35 % 1017,4 hPa 0,0 l/m 4,5 km/h O-NO -13,9 C -0,4 C 2,5 km/h
26.02.2018 13:00 -1,8 C 37 % 1017,1 hPa 0,0 l/m 9,7 km/h NO -14,5 C -5,2 C 5,4 km/h
26.02.2018 14:00 -0,1 C 34 % 1017,0 hPa 0,0 l/m 7,1 km/h NO -14,0 C -0,8 C 4,0 km/h
26.02.2018 15:00 -1,0 C 35 % 1016,9 hPa 0,0 l/m 17,5 km/h O-NO -14,5 C -9,6 C 9,7 km/h
26.02.2018 16:00 -0,6 C 34 % 1016,6 hPa 0,0 l/m 16,8 km/h NO -14,5 C -8,8 C 9,4 km/h
26.02.2018 17:00 -4,7 C 40 % 1016,4 hPa 0,0 l/m 0,0 km/h NO -16,2 C -4,7 C 0,0 km/h
26.02.2018 18:00 -6,7 C 47 % 1016,6 hPa 0,0 l/m 0,0 km/h N-NO -16,1 C -6,7 C 0,0 km/h
26.02.2018 19:00 -7,6 C 53 % 1016,5 hPa 0,0 l/m 0,0 km/h N -15,5 C -7,6 C 0,0 km/h
26.02.2018 20:00 -7,4 C 55 % 1016,3 hPa 0,0 l/m 0,0 km/h N -14,9 C -7,4 C 0,0 km/h
26.02.2018 21:00 -7,3 C 58 % 1016,2 hPa 0,0 l/m 0,0 km/h N-NO -14,1 C -7,3 C 0,0 km/h
26.02.2018 22:00 -7,7 C 59 % 1016,0 hPa 0,0 l/m 0,0 km/h N-NO -14,3 C -7,7 C 0,0 km/h
26.02.2018 23:00 -8,2 C 61 % 1015,7 hPa 0,0 l/m 0,0 km/h O-SO -14,4 C -8,2 C 0,0 km/h
27.02.2018 00:00 -8,6 C 62 % 1015,3 hPa 0,0 l/m 0,0 km/h NO -14,5 C -8,6 C 0,0 km/h
27.02.2018 01:00 -9,1 C 62 % 1014,9 hPa 0,0 l/m 0,0 km/h N-NO -15,0 C -9,1 C 0,0 km/h
27.02.2018 02:00 -9,3 C 63 % 1014,6 hPa 0,0 l/m 0,0 km/h N -15,0 C -9,3 C 0,0 km/h
27.02.2018 03:00 -9,3 C 64 % 1014,0 hPa 0,0 l/m 5,2 km/h NO -14,8 C -9,3 C 2,9 km/h
27.02.2018 04:00 -9,2 C 64 % 1013,9 hPa 0,0 l/m 0,0 km/h N -14,7 C -9,2 C 0,0 km/h
27.02.2018 05:00 -9,6 C 66 % 1013,9 hPa 0,0 l/m 0,0 km/h N-NO -14,7 C -9,6 C 0,0 km/h
27.02.2018 06:00 -9,8 C 67 % 1013,7 hPa 0,0 l/m 0,0 km/h N -14,7 C -9,8 C 0,0 km/h
27.02.2018 07:00 -9,9 C 68 % 1013,9 hPa 0,0 l/m 0,0 km/h NO -14,7 C -9,9 C 0,0 km/h
27.02.2018 08:00 -7,1 C 63 % 1013,9 hPa 0,0 l/m 0,0 km/h N-NO -12,9 C -7,1 C 0,0 km/h
27.02.2018 09:00 -6,0 C 57 % 1013,6 hPa 0,0 l/m 0,0 km/h O-NO -13,1 C -6,0 C 0,0 km/h
27.02.2018 10:00 -3,2 C 51 % 1013,3 hPa 0,0 l/m 0,0 km/h N -11,9 C -3,2 C 0,0 km/h
27.02.2018 11:00 -1,4 C 43 % 1013,4 hPa 0,0 l/m 4,5 km/h N -12,3 C -1,4 C 2,5 km/h
27.02.2018 12:00 -0,9 C 40 % 1013,0 hPa 0,0 l/m 1,9 km/h N-NO -12,8 C -0,9 C 1,1 km/h
27.02.2018 13:00 -0,8 C 38 % 1012,6 hPa 0,0 l/m 0,0 km/h O-NO -13,3 C -0,8 C 0,0 km/h
27.02.2018 14:00 0,7 C 36 % 1012,2 hPa 0,0 l/m 10,4 km/h N -12,6 C -3,0 C 5,8 km/h
27.02.2018 15:00 -2,6 C 39 % 1012,0 hPa 0,0 l/m 9,7 km/h O-NO -14,6 C -6,0 C 5,4 km/h
27.02.2018 16:00 -3,4 C 43 % 1012,3 hPa 0,0 l/m 0,0 km/h NO -14,1 C -3,4 C 0,0 km/h
27.02.2018 17:00 -5,9 C 49 % 1012,5 hPa 0,0 l/m 0,0 km/h N-NO -14,9 C -5,9 C 0,0 km/h
27.02.2018 18:00 -7,1 C 53 % 1013,1 hPa 0,0 l/m 11,7 km/h NO -15,0 C -12,9 C 6,5 km/h
27.02.2018 19:00 -7,9 C 55 % 1012,9 hPa 0,0 l/m 0,0 km/h O-NO -15,3 C -7,9 C 0,0 km/h
27.02.2018 20:00 -8,4 C 58 % 1012,9 hPa 0,0 l/m 0,0 km/h N-NO -15,2 C -8,4 C 0,0 km/h
27.02.2018 21:00 -8,9 C 60 % 1013,0 hPa 0,0 l/m 0,0 km/h N -15,2 C -8,9 C 0,0 km/h
27.02.2018 22:00 -9,7 C 62 % 1012,8 hPa 0,0 l/m 0,0 km/h N -15,6 C -9,7 C 0,0 km/h
27.02.2018 23:00 -10,9 C 66 % 1012,7 hPa 0,0 l/m 0,0 km/h SO -16,0 C -10,9 C 0,0 km/h
28.02.2018 00:00 -11,9 C 68 % 1012,6 hPa 0,0 l/m 0,0 km/h O-SO -16,6 C -11,9 C 0,0 km/h
28.02.2018 01:00 -11,6 C 72 % 1012,5 hPa 0,0 l/m 0,0 km/h O-SO -15,6 C -11,6 C 0,0 km/h
28.02.2018 02:00 -12,2 C 73 % 1012,3 hPa 0,0 l/m 0,0 km/h O-SO -16,0 C -12,2 C 0,0 km/h
28.02.2018 03:00 -12,4 C 72 % 1011,8 hPa 0,0 l/m 0,0 km/h O-SO -16,4 C -12,4 C 0,0 km/h
28.02.2018 04:00 -12,4 C 74 % 1011,7 hPa 0,0 l/m 0,0 km/h O-SO -16,1 C -12,4 C 0,0 km/h
28.02.2018 05:00 -13,4 C 74 % 1011,9 hPa 0,0 l/m 0,0 km/h O-SO -17,0 C -13,4 C 0,0 km/h
28.02.2018 06:00 -13,2 C 76 % 1011,8 hPa 0,0 l/m 0,0 km/h O-NO -16,5 C -13,2 C 0,0 km/h
28.02.2018 07:00 -12,3 C 78 % 1011,8 hPa 0,0 l/m 0,0 km/h S-SW -15,3 C -12,3 C 0,0 km/h
28.02.2018 08:00 -6,2 C 71 % 1012,0 hPa 0,0 l/m 0,0 km/h W-NW -10,6 C -6,2 C 0,0 km/h
28.02.2018 09:00 -1,9 C 54 % 1011,6 hPa 0,0 l/m 0,0 km/h N -9,9 C -1,9 C 0,0 km/h
28.02.2018 10:00 1,3 C 43 % 1011,4 hPa 0,0 l/m 0,0 km/h O-NO -9,9 C 1,3 C 0,0 km/h
28.02.2018 11:00 4,4 C 36 % 1011,0 hPa 0,0 l/m 0,0 km/h N -9,3 C 4,4 C 0,0 km/h
28.02.2018 12:00 4,2 C 29 % 1010,3 hPa 0,0 l/m 0,0 km/h N-NO -12,2 C 4,2 C 0,0 km/h
28.02.2018 13:00 3,9 C 29 % 1009,7 hPa 0,0 l/m 0,0 km/h S-SO -12,5 C 3,9 C 0,0 km/h
28.02.2018 14:00 8,3 C 27 % 1009,2 hPa 0,0 l/m 0,0 km/h NO -9,6 C 8,3 C 0,0 km/h
28.02.2018 15:00 6,7 C 26 % 1008,1 hPa 0,0 l/m 0,0 km/h S -11,4 C 6,7 C 0,0 km/h
28.02.2018 16:00 1,1 C 34 % 1008,4 hPa 0,0 l/m 0,0 km/h NO -13,0 C 1,1 C 0,0 km/h
28.02.2018 17:00 -1,7 C 40 % 1007,7 hPa 0,0 l/m 20,7 km/h NO -13,5 C -12,2 C 11,5 km/h
28.02.2018 18:00 -2,4 C 42 % 1007,3 hPa 0,0 l/m 0,0 km/h O -13,5 C -2,4 C 0,0 km/h
28.02.2018 19:00 -2,9 C 43 % 1006,6 hPa 0,0 l/m 0,0 km/h O-NO -13,7 C -2,9 C 0,0 km/h
28.02.2018 20:00 -3,1 C 44 % 1006,0 hPa 0,0 l/m 0,0 km/h N -13,6 C -3,1 C 0,0 km/h
28.02.2018 21:00 -3,0 C 46 % 1005,3 hPa 0,0 l/m 0,0 km/h N -13,0 C -3,0 C 0,0 km/h
28.02.2018 22:00 -2,9 C 47 % 1005,2 hPa 0,0 l/m 0,0 km/h N-NO -12,6 C -2,9 C 0,0 km/h
28.02.2018 23:00 -2,9 C 48 % 1004,4 hPa 0,0 l/m 0,0 km/h N-NO -12,3 C -2,9 C 0,0 km/h
01.03.2018 00:00 -3,0 C 49 % 1004,2 hPa 0,0 l/m 0,0 km/h N-NO -12,2 C -3,0 C 0,0 km/h
01.03.2018 01:00 -2,7 C 48 % 1002,5 hPa 0,0 l/m 0,0 km/h SW -12,2 C -2,7 C 0,0 km/h
01.03.2018 02:00 -3,1 C 53 % 1002,7 hPa 0,0 l/m 0,0 km/h SW -11,3 C -3,1 C 0,0 km/h
01.03.2018 03:00 -3,8 C 53 % 1002,0 hPa 0,0 l/m 0,0 km/h SW -11,9 C -3,8 C 0,0 km/h
01.03.2018 04:00 -3,9 C 56 % 1001,9 hPa 0,0 l/m 0,0 km/h SW -11,4 C -3,9 C 0,0 km/h
01.03.2018 05:00 -3,8 C 57 % 1001,4 hPa 0,0 l/m 0,0 km/h O-SO -11,0 C -3,8 C 0,0 km/h
01.03.2018 06:00 -3,9 C 57 % 1001,3 hPa 0,0 l/m 0,0 km/h SO -11,1 C -3,9 C 0,0 km/h
01.03.2018 07:00 -3,9 C 58 % 1001,0 hPa 0,0 l/m 7,1 km/h O-SO -10,9 C -4,7 C 4,0 km/h
01.03.2018 08:00 -3,4 C 57 % 1000,8 hPa 0,0 l/m 0,0 km/h O-SO -10,7 C -3,4 C 0,0 km/h
01.03.2018 09:00 -2,7 C 56 % 1000,9 hPa 0,0 l/m 0,0 km/h SO -10,2 C -2,7 C 0,0 km/h
01.03.2018 10:00 -1,0 C 53 % 1000,5 hPa 0,0 l/m 0,0 km/h SO -9,3 C -1,0 C 0,0 km/h
01.03.2018 11:00 0,6 C 50 % 1000,2 hPa 0,0 l/m 0,0 km/h W-NW -8,6 C 0,6 C 0,0 km/h
01.03.2018 12:00 1,3 C 48 % 999,2 hPa 0,0 l/m 0,0 km/h W-NW -8,5 C 1,3 C 0,0 km/h
01.03.2018 13:00 2,5 C 45 % 998,5 hPa 0,0 l/m 0,0 km/h W -8,2 C 2,5 C 0,0 km/h
01.03.2018 14:00 1,8 C 46 % 997,7 hPa 0,0 l/m 0,0 km/h W -8,6 C 1,8 C 0,0 km/h
01.03.2018 15:00 2,3 C 47 % 997,2 hPa 0,0 l/m 0,0 km/h S-SW -7,8 C 2,3 C 0,0 km/h
01.03.2018 16:00 1,4 C 50 % 996,7 hPa 0,0 l/m 0,0 km/h S-SW -7,9 C 1,4 C 0,0 km/h
01.03.2018 17:00 0,6 C 54 % 996,3 hPa 0,0 l/m 0,0 km/h S-SW -7,6 C 0,6 C 0,0 km/h
01.03.2018 18:00 0,2 C 56 % 996,2 hPa 0,0 l/m 0,0 km/h S-SW -7,5 C 0,2 C 0,0 km/h
01.03.2018 19:00 0,1 C 58 % 995,9 hPa 0,0 l/m 0,0 km/h S-SW -7,2 C 0,1 C 0,0 km/h
01.03.2018 20:00 0,0 C 59 % 995,6 hPa 0,0 l/m 0,0 km/h S-SW -7,0 C 0,0 C 0,0 km/h
01.03.2018 21:00 -0,5 C 65 % 995,6 hPa 0,0 l/m 0,0 km/h S-SW -6,3 C -0,5 C 0,0 km/h
01.03.2018 22:00 -0,7 C 68 % 994,7 hPa 0,0 l/m 0,0 km/h S-SW -5,9 C -0,7 C 0,0 km/h
01.03.2018 23:00 -1,2 C 71 % 994,2 hPa 0,0 l/m 0,0 km/h S-SW -5,8 C -1,2 C 0,0 km/h
02.03.2018 00:00 -2,2 C 74 % 994,1 hPa 0,0 l/m 0,0 km/h S-SW -6,2 C -2,2 C 0,0 km/h
02.03.2018 01:00 -2,4 C 77 % 993,8 hPa 0,0 l/m 0,0 km/h SW -5,9 C -2,4 C 0,0 km/h
02.03.2018 02:00 -2,1 C 78 % 992,7 hPa 0,0 l/m 0,0 km/h S -5,4 C -2,1 C 0,0 km/h
02.03.2018 03:00 -3,5 C 78 % 992,4 hPa 0,0 l/m 0,0 km/h S -6,8 C -3,5 C 0,0 km/h
02.03.2018 04:00 -3,1 C 80 % 991,6 hPa 0,0 l/m 0,0 km/h S -6,0 C -3,1 C 0,0 km/h
02.03.2018 05:00 -3,5 C 78 % 991,0 hPa 0,0 l/m 0,0 km/h S -6,8 C -3,5 C 0,0 km/h
02.03.2018 06:00 -3,1 C 79 % 990,4 hPa 0,0 l/m 0,0 km/h S -6,2 C -3,1 C 0,0 km/h
02.03.2018 07:00 -2,1 C 78 % 989,9 hPa 0,0 l/m 0,0 km/h W-SW -5,4 C -2,1 C 0,0 km/h
02.03.2018 08:00 0,2 C 76 % 989,9 hPa 0,0 l/m 0,0 km/h W -3,5 C 0,2 C 0,0 km/h
02.03.2018 09:00 0,6 C 64 % 989,9 hPa 0,0 l/m 0,0 km/h W -5,4 C 0,6 C 0,0 km/h
02.03.2018 10:00 2,3 C 58 % 991,0 hPa 0,0 l/m 0,0 km/h NW -5,1 C 2,3 C 0,0 km/h
02.03.2018 11:00 1,4 C 57 % 992,8 hPa 0,0 l/m 0,0 km/h S-SW -6,2 C 1,4 C 0,0 km/h
02.03.2018 12:00 4,6 C 55 % 992,9 hPa 0,0 l/m 11,0 km/h SW -3,6 C 0,9 C 6,1 km/h
02.03.2018 13:00 2,9 C 54 % 993,6 hPa 0,0 l/m 0,0 km/h SW -5,5 C 2,9 C 0,0 km/h
02.03.2018 14:00 1,4 C 57 % 994,1 hPa 0,0 l/m 0,0 km/h SW -6,2 C 1,4 C 0,0 km/h
02.03.2018 15:00 -0,4 C 71 % 994,9 hPa 0,0 l/m 0,0 km/h SW -5,0 C -0,4 C 0,0 km/h
02.03.2018 16:00 -1,0 C 77 % 995,3 hPa 0,0 l/m 0,0 km/h N -4,5 C -1,0 C 0,0 km/h
02.03.2018 17:00 -0,9 C 80 % 995,2 hPa 0,0 l/m 0,0 km/h N -3,9 C -0,9 C 0,0 km/h
02.03.2018 18:00 -0,2 C 83 % 995,2 hPa 0,0 l/m 0,0 km/h O -2,7 C -0,2 C 0,0 km/h
02.03.2018 19:00 0,2 C 84 % 995,1 hPa 0,0 l/m 0,0 km/h O -2,2 C 0,2 C 0,0 km/h
02.03.2018 20:00 -0,2 C 85 % 995,4 hPa 0,0 l/m 0,0 km/h O-NO -2,4 C -0,2 C 0,0 km/h
02.03.2018 21:00 -1,2 C 85 % 995,5 hPa 0,0 l/m 0,0 km/h NO -3,4 C -1,2 C 0,0 km/h
02.03.2018 22:00 -1,4 C 85 % 995,6 hPa 0,0 l/m 0,0 km/h NO -3,6 C -1,4 C 0,0 km/h
02.03.2018 23:00 -1,3 C 86 % 995,2 hPa 0,0 l/m 0,0 km/h NO -3,3 C -1,3 C 0,0 km/h
03.03.2018 00:00 -0,8 C 86 % 995,5 hPa 0,0 l/m 0,0 km/h NO -2,8 C -0,8 C 0,0 km/h
03.03.2018 01:00 -0,8 C 86 % 995,3 hPa 0,0 l/m 0,0 km/h NO -2,8 C -0,8 C 0,0 km/h
03.03.2018 02:00 -1,1 C 85 % 994,9 hPa 0,0 l/m 0,0 km/h W-NW -3,3 C -1,1 C 0,0 km/h
03.03.2018 03:00 -1,8 C 85 % 994,5 hPa 0,0 l/m 0,0 km/h W-NW -4,0 C -1,8 C 0,0 km/h
03.03.2018 04:00 -2,1 C 85 % 993,5 hPa 0,0 l/m 0,0 km/h W-NW -4,3 C -2,1 C 0,0 km/h
03.03.2018 05:00 -1,9 C 85 % 993,1 hPa 0,0 l/m 0,0 km/h W-NW -4,1 C -1,9 C 0,0 km/h
03.03.2018 06:00 -1,9 C 85 % 992,9 hPa 0,0 l/m 0,0 km/h W -4,1 C -1,9 C 0,0 km/h
03.03.2018 07:00 -1,9 C 85 % 993,1 hPa 0,0 l/m 0,0 km/h W-NW -4,1 C -1,9 C 0,0 km/h
03.03.2018 08:00 -1,6 C 84 % 992,8 hPa 0,0 l/m 0,0 km/h W -3,9 C -1,6 C 0,0 km/h
03.03.2018 09:00 -0,6 C 84 % 992,2 hPa 0,0 l/m 0,0 km/h W -3,0 C -0,6 C 0,0 km/h
03.03.2018 10:00 -0,2 C 85 % 992,5 hPa 0,0 l/m 0,0 km/h W -2,4 C -0,2 C 0,0 km/h
03.03.2018 11:00 -0,1 C 85 % 992,8 hPa 0,0 l/m 0,0 km/h W-SW -2,3 C -0,1 C 0,0 km/h
03.03.2018 12:00 -0,1 C 86 % 993,6 hPa 0,0 l/m 0,0 km/h W-SW -2,2 C -0,1 C 0,0 km/h
03.03.2018 13:00 0,9 C 86 % 993,7 hPa 0,0 l/m 0,0 km/h W-SW -1,2 C 0,9 C 0,0 km/h
03.03.2018 14:00 1,1 C 85 % 994,4 hPa 0,5 l/m 0,0 km/h W-SW -1,1 C 1,1 C 0,0 km/h
03.03.2018 15:00 0,8 C 86 % 994,8 hPa 0,5 l/m 0,0 km/h W-SW -1,3 C 0,8 C 0,0 km/h
03.03.2018 16:00 0,6 C 86 % 994,9 hPa 0,5 l/m 0,0 km/h W-SW -1,5 C 0,6 C 0,0 km/h
03.03.2018 17:00 0,4 C 86 % 995,0 hPa 1,0 l/m 0,0 km/h W-SW -1,7 C 0,4 C 0,0 km/h
03.03.2018 18:00 0,2 C 86 % 995,9 hPa 0,5 l/m 0,0 km/h N -1,9 C 0,2 C 0,0 km/h
03.03.2018 19:00 0,2 C 85 % 996,6 hPa 0,5 l/m 0,0 km/h N -2,0 C 0,2 C 0,0 km/h
03.03.2018 20:00 -0,1 C 85 % 997,0 hPa 0,0 l/m 0,0 km/h NO -2,3 C -0,1 C 0,0 km/h
03.03.2018 21:00 -0,2 C 85 % 996,9 hPa 0,0 l/m 0,0 km/h O-NO -2,4 C -0,2 C 0,0 km/h
03.03.2018 22:00 0,1 C 84 % 996,8 hPa 0,0 l/m 0,0 km/h O -2,3 C 0,1 C 0,0 km/h
03.03.2018 23:00 0,4 C 83 % 998,0 hPa 0,0 l/m 0,0 km/h O-SO -2,1 C 0,4 C 0,0 km/h
04.03.2018 00:00 0,8 C 82 % 998,0 hPa 0,5 l/m 0,0 km/h O-SO -1,9 C 0,8 C 0,0 km/h
04.03.2018 01:00 0,9 C 82 % 998,5 hPa 0,0 l/m 0,0 km/h O-NO -1,8 C 0,9 C 0,0 km/h
04.03.2018 02:00 1,1 C 81 % 998,4 hPa 0,0 l/m 0,0 km/h O-NO -1,8 C 1,1 C 0,0 km/h
04.03.2018 03:00 0,9 C 81 % 997,9 hPa 0,0 l/m 0,0 km/h O-SO -2,0 C 0,9 C 0,0 km/h
04.03.2018 04:00 0,7 C 80 % 997,5 hPa 0,0 l/m 0,0 km/h N-NO -2,3 C 0,7 C 0,0 km/h
04.03.2018 05:00 0,8 C 80 % 996,9 hPa 0,0 l/m 0,0 km/h NO -2,2 C 0,8 C 0,0 km/h
04.03.2018 06:00 0,1 C 80 % 996,8 hPa 0,0 l/m 0,0 km/h NO -2,9 C 0,1 C 0,0 km/h
04.03.2018 07:00 -0,3 C 80 % 996,7 hPa 0,0 l/m 0,0 km/h NO -3,3 C -0,3 C 0,0 km/h
04.03.2018 08:00 2,7 C 68 % 996,5 hPa 0,5 l/m 0,0 km/h N-NO -2,6 C 2,7 C 0,0 km/h
04.03.2018 09:00 7,6 C 85 % 995,7 hPa 0,0 l/m 0,0 km/h W-NW 5,2 C 7,6 C 0,0 km/h
04.03.2018 10:00 11,3 C 72 % 995,8 hPa 0,5 l/m 0,0 km/h W-SW 6,4 C 11,3 C 0,0 km/h
04.03.2018 11:00 15,2 C 62 % 994,9 hPa 0,0 l/m 0,0 km/h W-SW 8,0 C 15,2 C 0,0 km/h
04.03.2018 12:00 13,8 C 62 % 994,4 hPa 0,0 l/m 5,2 km/h NW 6,6 C 13,8 C 2,9 km/h
04.03.2018 13:00 14,1 C 61 % 993,9 hPa 0,0 l/m 0,0 km/h N-NW 6,7 C 14,1 C 0,0 km/h
04.03.2018 14:00 13,8 C 60 % 992,8 hPa 0,0 l/m 0,0 km/h W 6,2 C 13,8 C 0,0 km/h
04.03.2018 15:00 13,9 C 61 % 992,1 hPa 0,0 l/m 0,0 km/h W 6,5 C 13,9 C 0,0 km/h
04.03.2018 16:00 11,8 C 67 % 992,2 hPa 0,0 l/m 0,0 km/h W 5,9 C 11,8 C 0,0 km/h
04.03.2018 17:00 9,1 C 75 % 992,3 hPa 0,0 l/m 0,0 km/h NO 4,9 C 9,1 C 0,0 km/h
04.03.2018 18:00 7,3 C 80 % 992,9 hPa 0,0 l/m 0,0 km/h N-NO 4,1 C 7,3 C 0,0 km/h
04.03.2018 19:00 6,3 C 82 % 993,7 hPa 0,0 l/m 0,0 km/h O-SO 3,5 C 6,3 C 0,0 km/h
04.03.2018 20:00 5,8 C 84 % 994,9 hPa 0,0 l/m 0,0 km/h S 3,3 C 5,8 C 0,0 km/h
04.03.2018 21:00 7,1 C 85 % 996,4 hPa 0,5 l/m 18,8 km/h SW 4,8 C -0,0 C 10,4 km/h
04.03.2018 22:00 6,4 C 85 % 997,0 hPa 0,0 l/m 0,0 km/h S-SW 4,1 C 6,4 C 0,0 km/h
04.03.2018 23:00 6,5 C 84 % 997,2 hPa 0,5 l/m 0,0 km/h SO 4,0 C 6,5 C 0,0 km/h
Min-Datum _ 28.02.18 28.02.18 02.03.18 - 26.02.18 - 28.02.18 28.02.18 26.02.18
_ Min-Zeit 05:53 15:53 07:53 - 01:53 - 05:53 05:53 01:53
Minimum _ -13,4 C 26 % 989,9 hPa - 0,0 km/h - -17,0 C -13,4 C 0,0 km/h
Max-Datum _ 04.03.18 02.03.18 26.02.18 03.03.18 28.02.18 - 04.03.18 04.03.18 28.02.18
_ Max-Zeit 11:53 23:53 07:53 17:53 17:53 - 11:53 11:53 17:53
Maximum _ 15,2 C 86 % 1018,5 hPa 1,0 l/m 20,7 km/h
NO
- 8,0 C 15,2 C 11,5 km/h
NO
Durchschnitt _ -1,6 C 63 % 1003,2 hPa #6,2 l/m 1,1 km/h NO -8,1 C -2,0 C 0,6 km/h
www.sexauwetter.de